sensor_id;sensor_type;location;lat;lon;timestamp;P1;durP1;ratioP1;P2;durP2;ratioP2
45198;SDS011;30941;46.422;18.772;2023-09-08T00:00:31;10.18;;;5.72;;
45198;SDS011;30941;46.422;18.772;2023-09-08T00:02:56;11.68;;;5.88;;
45198;SDS011;30941;46.422;18.772;2023-09-08T00:05:22;13.90;;;5.38;;
45198;SDS011;30941;46.422;18.772;2023-09-08T00:07:47;8.95;;;5.53;;
45198;SDS011;30941;46.422;18.772;2023-09-08T00:10:12;10.93;;;5.88;;
45198;SDS011;30941;46.422;18.772;2023-09-08T00:12:38;8.50;;;5.40;;
45198;SDS011;30941;46.422;18.772;2023-09-08T00:15:03;7.80;;;5.38;;
45198;SDS011;30941;46.422;18.772;2023-09-08T00:17:29;14.82;;;6.18;;
45198;SDS011;30941;46.422;18.772;2023-09-08T00:19:56;10.40;;;5.72;;
45198;SDS011;30941;46.422;18.772;2023-09-08T00:22:22;9.02;;;5.50;;
45198;SDS011;30941;46.422;18.772;2023-09-08T00:24:47;12.68;;;5.85;;
45198;SDS011;30941;46.422;18.772;2023-09-08T00:27:13;10.45;;;5.15;;
45198;SDS011;30941;46.422;18.772;2023-09-08T00:29:38;10.35;;;6.07;;
45198;SDS011;30941;46.422;18.772;2023-09-08T00:32:04;12.77;;;5.90;;
45198;SDS011;30941;46.422;18.772;2023-09-08T00:34:29;7.97;;;5.05;;
45198;SDS011;30941;46.422;18.772;2023-09-08T00:36:55;9.00;;;5.70;;
45198;SDS011;30941;46.422;18.772;2023-09-08T00:39:20;9.25;;;5.55;;
45198;SDS011;30941;46.422;18.772;2023-09-08T00:41:45;8.73;;;5.72;;
45198;SDS011;30941;46.422;18.772;2023-09-08T00:44:11;9.55;;;5.28;;
45198;SDS011;30941;46.422;18.772;2023-09-08T00:46:36;13.80;;;6.00;;
45198;SDS011;30941;46.422;18.772;2023-09-08T00:49:02;10.57;;;5.60;;
45198;SDS011;30941;46.422;18.772;2023-09-08T00:51:27;13.65;;;6.03;;
45198;SDS011;30941;46.422;18.772;2023-09-08T00:53:53;12.18;;;6.07;;
45198;SDS011;30941;46.422;18.772;2023-09-08T00:56:18;12.65;;;6.28;;
45198;SDS011;30941;46.422;18.772;2023-09-08T00:58:44;12.98;;;5.93;;
45198;SDS011;30941;46.422;18.772;2023-09-08T01:01:09;13.55;;;5.47;;
45198;SDS011;30941;46.422;18.772;2023-09-08T01:03:35;8.35;;;5.68;;
45198;SDS011;30941;46.422;18.772;2023-09-08T01:06:00;9.88;;;6.07;;
45198;SDS011;30941;46.422;18.772;2023-09-08T01:08:26;7.72;;;5.43;;
45198;SDS011;30941;46.422;18.772;2023-09-08T01:10:51;11.30;;;5.70;;
45198;SDS011;30941;46.422;18.772;2023-09-08T01:13:17;9.90;;;5.53;;
45198;SDS011;30941;46.422;18.772;2023-09-08T01:15:42;10.25;;;5.68;;
45198;SDS011;30941;46.422;18.772;2023-09-08T01:18:07;9.00;;;5.35;;
45198;SDS011;30941;46.422;18.772;2023-09-08T01:20:55;7.65;;;5.43;;
45198;SDS011;30941;46.422;18.772;2023-09-08T01:26:17;11.40;;;6.47;;
45198;SDS011;30941;46.422;18.772;2023-09-08T01:28:43;10.43;;;6.13;;
45198;SDS011;30941;46.422;18.772;2023-09-08T01:31:10;12.25;;;6.03;;
45198;SDS011;30941;46.422;18.772;2023-09-08T01:33:36;8.90;;;5.22;;
45198;SDS011;30941;46.422;18.772;2023-09-08T01:36:01;8.77;;;5.20;;
45198;SDS011;30941;46.422;18.772;2023-09-08T01:38:26;7.88;;;5.47;;
45198;SDS011;30941;46.422;18.772;2023-09-08T01:40:52;12.00;;;6.15;;
45198;SDS011;30941;46.422;18.772;2023-09-08T01:43:17;13.27;;;5.80;;
45198;SDS011;30941;46.422;18.772;2023-09-08T01:45:43;11.40;;;5.82;;
45198;SDS011;30941;46.422;18.772;2023-09-08T01:48:08;9.90;;;5.80;;
45198;SDS011;30941;46.422;18.772;2023-09-08T01:50:33;6.93;;;5.25;;
45198;SDS011;30941;46.422;18.772;2023-09-08T01:52:59;8.07;;;5.30;;
45198;SDS011;30941;46.422;18.772;2023-09-08T01:55:24;8.90;;;5.57;;
45198;SDS011;30941;46.422;18.772;2023-09-08T01:57:49;10.48;;;5.80;;
45198;SDS011;30941;46.422;18.772;2023-09-08T02:00:15;11.93;;;5.95;;
45198;SDS011;30941;46.422;18.772;2023-09-08T02:02:40;9.45;;;5.35;;
45198;SDS011;30941;46.422;18.772;2023-09-08T02:05:06;10.63;;;5.93;;
45198;SDS011;30941;46.422;18.772;2023-09-08T02:07:33;9.52;;;5.65;;
45198;SDS011;30941;46.422;18.772;2023-09-08T02:09:58;10.65;;;5.97;;
45198;SDS011;30941;46.422;18.772;2023-09-08T02:12:23;8.90;;;6.32;;
45198;SDS011;30941;46.422;18.772;2023-09-08T02:14:49;10.57;;;7.15;;
45198;SDS011;30941;46.422;18.772;2023-09-08T02:17:14;11.57;;;6.03;;
45198;SDS011;30941;46.422;18.772;2023-09-08T02:19:39;8.18;;;5.82;;
45198;SDS011;30941;46.422;18.772;2023-09-08T02:22:05;11.38;;;5.80;;
45198;SDS011;30941;46.422;18.772;2023-09-08T02:24:30;8.82;;;5.60;;
45198;SDS011;30941;46.422;18.772;2023-09-08T02:26:56;9.30;;;5.72;;
45198;SDS011;30941;46.422;18.772;2023-09-08T02:29:21;8.85;;;6.22;;
45198;SDS011;30941;46.422;18.772;2023-09-08T02:31:47;9.65;;;5.97;;
45198;SDS011;30941;46.422;18.772;2023-09-08T02:34:13;9.18;;;6.28;;
45198;SDS011;30941;46.422;18.772;2023-09-08T02:36:38;10.27;;;6.15;;
45198;SDS011;30941;46.422;18.772;2023-09-08T02:39:04;11.35;;;6.22;;
45198;SDS011;30941;46.422;18.772;2023-09-08T02:41:29;9.68;;;5.93;;
45198;SDS011;30941;46.422;18.772;2023-09-08T02:43:55;8.75;;;6.15;;
45198;SDS011;30941;46.422;18.772;2023-09-08T02:46:20;10.55;;;6.40;;
45198;SDS011;30941;46.422;18.772;2023-09-08T02:48:45;8.63;;;5.90;;
45198;SDS011;30941;46.422;18.772;2023-09-08T02:51:11;9.27;;;6.07;;
45198;SDS011;30941;46.422;18.772;2023-09-08T02:53:37;11.32;;;6.40;;
45198;SDS011;30941;46.422;18.772;2023-09-08T02:56:02;10.50;;;5.50;;
45198;SDS011;30941;46.422;18.772;2023-09-08T02:58:30;9.82;;;6.15;;
45198;SDS011;30941;46.422;18.772;2023-09-08T03:01:06;10.63;;;5.85;;
45198;SDS011;30941;46.422;18.772;2023-09-08T03:03:45;11.95;;;6.25;;
45198;SDS011;30941;46.422;18.772;2023-09-08T03:06:11;10.13;;;6.20;;
45198;SDS011;30941;46.422;18.772;2023-09-08T03:08:38;11.30;;;6.40;;
45198;SDS011;30941;46.422;18.772;2023-09-08T03:11:03;10.05;;;6.22;;
45198;SDS011;30941;46.422;18.772;2023-09-08T03:13:30;8.52;;;6.00;;
45198;SDS011;30941;46.422;18.772;2023-09-08T03:15:56;9.50;;;6.22;;
45198;SDS011;30941;46.422;18.772;2023-09-08T03:18:22;9.25;;;5.85;;
45198;SDS011;30941;46.422;18.772;2023-09-08T03:20:48;10.70;;;6.57;;
45198;SDS011;30941;46.422;18.772;2023-09-08T03:23:14;11.70;;;6.50;;
45198;SDS011;30941;46.422;18.772;2023-09-08T03:25:40;12.05;;;6.45;;
45198;SDS011;30941;46.422;18.772;2023-09-08T03:28:05;13.65;;;7.28;;
45198;SDS011;30941;46.422;18.772;2023-09-08T03:30:30;10.80;;;6.40;;
45198;SDS011;30941;46.422;18.772;2023-09-08T03:32:56;9.55;;;6.45;;
45198;SDS011;30941;46.422;18.772;2023-09-08T03:35:21;9.10;;;6.43;;
45198;SDS011;30941;46.422;18.772;2023-09-08T03:37:46;10.00;;;7.30;;
45198;SDS011;30941;46.422;18.772;2023-09-08T03:40:12;9.18;;;6.38;;
45198;SDS011;30941;46.422;18.772;2023-09-08T03:42:37;11.10;;;6.68;;
45198;SDS011;30941;46.422;18.772;2023-09-08T03:45:03;12.02;;;6.25;;
45198;SDS011;30941;46.422;18.772;2023-09-08T03:47:29;10.13;;;7.00;;
45198;SDS011;30941;46.422;18.772;2023-09-08T03:49:54;11.23;;;6.88;;
45198;SDS011;30941;46.422;18.772;2023-09-08T03:52:19;11.55;;;6.82;;
45198;SDS011;30941;46.422;18.772;2023-09-08T03:54:45;13.05;;;7.28;;
45198;SDS011;30941;46.422;18.772;2023-09-08T03:57:11;10.70;;;6.38;;
45198;SDS011;30941;46.422;18.772;2023-09-08T03:59:36;10.82;;;6.78;;
45198;SDS011;30941;46.422;18.772;2023-09-08T04:02:02;13.20;;;6.88;;
45198;SDS011;30941;46.422;18.772;2023-09-08T04:04:27;11.23;;;6.72;;
45198;SDS011;30941;46.422;18.772;2023-09-08T04:06:53;12.32;;;6.78;;
45198;SDS011;30941;46.422;18.772;2023-09-08T04:09:18;10.32;;;6.18;;
45198;SDS011;30941;46.422;18.772;2023-09-08T04:11:43;15.75;;;6.38;;
45198;SDS011;30941;46.422;18.772;2023-09-08T04:14:09;15.50;;;7.43;;
45198;SDS011;30941;46.422;18.772;2023-09-08T04:16:34;10.27;;;6.57;;
45198;SDS011;30941;46.422;18.772;2023-09-08T04:19:00;12.20;;;6.70;;
45198;SDS011;30941;46.422;18.772;2023-09-08T04:21:25;11.75;;;7.00;;
45198;SDS011;30941;46.422;18.772;2023-09-08T04:23:50;16.00;;;6.90;;
45198;SDS011;30941;46.422;18.772;2023-09-08T04:26:16;14.57;;;6.45;;
45198;SDS011;30941;46.422;18.772;2023-09-08T04:28:41;14.38;;;6.97;;
45198;SDS011;30941;46.422;18.772;2023-09-08T04:31:06;17.73;;;7.68;;
45198;SDS011;30941;46.422;18.772;2023-09-08T04:33:32;10.60;;;6.13;;
45198;SDS011;30941;46.422;18.772;2023-09-08T04:35:57;15.45;;;7.25;;
45198;SDS011;30941;46.422;18.772;2023-09-08T04:38:22;14.88;;;6.32;;
45198;SDS011;30941;46.422;18.772;2023-09-08T04:40:48;10.93;;;7.47;;
45198;SDS011;30941;46.422;18.772;2023-09-08T04:43:13;12.60;;;6.95;;
45198;SDS011;30941;46.422;18.772;2023-09-08T04:45:38;12.95;;;7.15;;
45198;SDS011;30941;46.422;18.772;2023-09-08T04:48:04;17.38;;;6.82;;
45198;SDS011;30941;46.422;18.772;2023-09-08T04:50:30;13.90;;;7.85;;
45198;SDS011;30941;46.422;18.772;2023-09-08T04:52:55;15.18;;;6.68;;
45198;SDS011;30941;46.422;18.772;2023-09-08T04:55:20;12.27;;;6.80;;
45198;SDS011;30941;46.422;18.772;2023-09-08T04:57:46;12.80;;;7.00;;
45198;SDS011;30941;46.422;18.772;2023-09-08T05:00:11;13.55;;;6.75;;
45198;SDS011;30941;46.422;18.772;2023-09-08T05:02:37;14.27;;;7.40;;
45198;SDS011;30941;46.422;18.772;2023-09-08T05:05:03;15.90;;;7.38;;
45198;SDS011;30941;46.422;18.772;2023-09-08T05:07:28;16.80;;;7.72;;
45198;SDS011;30941;46.422;18.772;2023-09-08T05:09:54;13.23;;;6.82;;
45198;SDS011;30941;46.422;18.772;2023-09-08T05:12:19;13.85;;;6.85;;
45198;SDS011;30941;46.422;18.772;2023-09-08T05:14:45;10.88;;;7.10;;
45198;SDS011;30941;46.422;18.772;2023-09-08T05:17:10;12.32;;;7.53;;
45198;SDS011;30941;46.422;18.772;2023-09-08T05:19:35;13.07;;;7.15;;
45198;SDS011;30941;46.422;18.772;2023-09-08T05:22:01;13.65;;;8.20;;
45198;SDS011;30941;46.422;18.772;2023-09-08T05:24:26;16.52;;;7.20;;
45198;SDS011;30941;46.422;18.772;2023-09-08T05:26:52;13.93;;;7.15;;
45198;SDS011;30941;46.422;18.772;2023-09-08T05:29:17;14.43;;;7.03;;
45198;SDS011;30941;46.422;18.772;2023-09-08T05:31:43;12.95;;;7.20;;
45198;SDS011;30941;46.422;18.772;2023-09-08T05:34:08;17.98;;;7.30;;
45198;SDS011;30941;46.422;18.772;2023-09-08T05:36:34;11.10;;;6.97;;
45198;SDS011;30941;46.422;18.772;2023-09-08T05:39:01;11.15;;;7.32;;
45198;SDS011;30941;46.422;18.772;2023-09-08T05:41:27;13.35;;;6.82;;
45198;SDS011;30941;46.422;18.772;2023-09-08T05:43:53;10.60;;;6.88;;
45198;SDS011;30941;46.422;18.772;2023-09-08T05:46:19;13.25;;;7.60;;
45198;SDS011;30941;46.422;18.772;2023-09-08T05:48:44;11.55;;;7.30;;
45198;SDS011;30941;46.422;18.772;2023-09-08T05:51:10;13.25;;;7.40;;
45198;SDS011;30941;46.422;18.772;2023-09-08T05:53:35;15.45;;;7.70;;
45198;SDS011;30941;46.422;18.772;2023-09-08T05:56:04;12.23;;;7.85;;
45198;SDS011;30941;46.422;18.772;2023-09-08T05:58:29;10.38;;;7.38;;
45198;SDS011;30941;46.422;18.772;2023-09-08T06:00:55;9.10;;;6.38;;
45198;SDS011;30941;46.422;18.772;2023-09-08T06:03:20;13.05;;;7.53;;
45198;SDS011;30941;46.422;18.772;2023-09-08T06:05:46;12.43;;;6.70;;
45198;SDS011;30941;46.422;18.772;2023-09-08T06:08:11;10.65;;;6.80;;
45198;SDS011;30941;46.422;18.772;2023-09-08T06:10:37;12.40;;;7.40;;
45198;SDS011;30941;46.422;18.772;2023-09-08T06:13:03;15.52;;;7.32;;
45198;SDS011;30941;46.422;18.772;2023-09-08T06:15:29;13.98;;;7.30;;
45198;SDS011;30941;46.422;18.772;2023-09-08T06:17:54;11.60;;;7.63;;
45198;SDS011;30941;46.422;18.772;2023-09-08T06:20:19;10.95;;;7.20;;
45198;SDS011;30941;46.422;18.772;2023-09-08T06:22:46;12.73;;;7.20;;
45198;SDS011;30941;46.422;18.772;2023-09-08T06:25:11;11.13;;;7.07;;
45198;SDS011;30941;46.422;18.772;2023-09-08T06:27:37;12.80;;;7.43;;
45198;SDS011;30941;46.422;18.772;2023-09-08T06:30:02;12.93;;;8.00;;
45198;SDS011;30941;46.422;18.772;2023-09-08T06:32:28;9.73;;;6.95;;
45198;SDS011;30941;46.422;18.772;2023-09-08T06:34:53;12.48;;;7.35;;
45198;SDS011;30941;46.422;18.772;2023-09-08T06:37:18;11.70;;;7.85;;
45198;SDS011;30941;46.422;18.772;2023-09-08T06:39:44;13.48;;;7.00;;
45198;SDS011;30941;46.422;18.772;2023-09-08T06:42:09;14.60;;;7.90;;
45198;SDS011;30941;46.422;18.772;2023-09-08T06:44:35;11.35;;;7.72;;
45198;SDS011;30941;46.422;18.772;2023-09-08T06:47:01;11.23;;;7.47;;
45198;SDS011;30941;46.422;18.772;2023-09-08T06:49:28;14.00;;;7.28;;
45198;SDS011;30941;46.422;18.772;2023-09-08T06:51:53;11.35;;;6.53;;
45198;SDS011;30941;46.422;18.772;2023-09-08T06:54:19;14.13;;;6.72;;
45198;SDS011;30941;46.422;18.772;2023-09-08T06:56:44;9.77;;;6.78;;
45198;SDS011;30941;46.422;18.772;2023-09-08T06:59:09;12.35;;;6.63;;
45198;SDS011;30941;46.422;18.772;2023-09-08T07:01:35;10.55;;;6.30;;
45198;SDS011;30941;46.422;18.772;2023-09-08T07:04:01;11.70;;;6.60;;
45198;SDS011;30941;46.422;18.772;2023-09-08T07:06:26;10.90;;;6.00;;
45198;SDS011;30941;46.422;18.772;2023-09-08T07:08:51;10.32;;;6.03;;
45198;SDS011;30941;46.422;18.772;2023-09-08T07:11:17;13.30;;;6.22;;
45198;SDS011;30941;46.422;18.772;2023-09-08T07:13:42;43.20;;;8.52;;
45198;SDS011;30941;46.422;18.772;2023-09-08T07:16:08;11.88;;;6.50;;
45198;SDS011;30941;46.422;18.772;2023-09-08T07:18:33;10.50;;;6.40;;
45198;SDS011;30941;46.422;18.772;2023-09-08T07:21:01;15.07;;;7.20;;
45198;SDS011;30941;46.422;18.772;2023-09-08T07:23:27;9.63;;;6.35;;
45198;SDS011;30941;46.422;18.772;2023-09-08T07:25:52;9.10;;;6.05;;
45198;SDS011;30941;46.422;18.772;2023-09-08T07:28:17;11.15;;;6.32;;
45198;SDS011;30941;46.422;18.772;2023-09-08T07:30:43;10.25;;;7.07;;
45198;SDS011;30941;46.422;18.772;2023-09-08T07:33:08;10.82;;;6.85;;
45198;SDS011;30941;46.422;18.772;2023-09-08T07:35:37;9.02;;;6.60;;
45198;SDS011;30941;46.422;18.772;2023-09-08T07:38:03;13.40;;;6.72;;
45198;SDS011;30941;46.422;18.772;2023-09-08T07:40:29;10.88;;;6.22;;
45198;SDS011;30941;46.422;18.772;2023-09-08T07:42:54;12.75;;;6.68;;
45198;SDS011;30941;46.422;18.772;2023-09-08T07:45:19;10.88;;;6.47;;
45198;SDS011;30941;46.422;18.772;2023-09-08T07:47:45;10.00;;;6.35;;
45198;SDS011;30941;46.422;18.772;2023-09-08T07:50:23;11.57;;;7.18;;
45198;SDS011;30941;46.422;18.772;2023-09-08T07:52:50;11.27;;;6.80;;
45198;SDS011;30941;46.422;18.772;2023-09-08T07:55:17;11.65;;;6.90;;
45198;SDS011;30941;46.422;18.772;2023-09-08T07:57:43;10.38;;;6.93;;
45198;SDS011;30941;46.422;18.772;2023-09-08T08:00:09;13.48;;;6.60;;
45198;SDS011;30941;46.422;18.772;2023-09-08T08:02:36;11.52;;;6.72;;
45198;SDS011;30941;46.422;18.772;2023-09-08T08:05:02;8.52;;;6.30;;
45198;SDS011;30941;46.422;18.772;2023-09-08T08:07:27;9.63;;;5.60;;
45198;SDS011;30941;46.422;18.772;2023-09-08T08:19:20;10.55;;;5.95;;
45198;SDS011;30941;46.422;18.772;2023-09-08T08:21:46;8.00;;;5.65;;
45198;SDS011;30941;46.422;18.772;2023-09-08T08:24:11;10.57;;;6.70;;
45198;SDS011;30941;46.422;18.772;2023-09-08T08:26:37;11.95;;;6.45;;
45198;SDS011;30941;46.422;18.772;2023-09-08T08:29:02;9.43;;;6.20;;
45198;SDS011;30941;46.422;18.772;2023-09-08T08:31:28;11.68;;;6.90;;
45198;SDS011;30941;46.422;18.772;2023-09-08T08:33:54;9.68;;;6.07;;
45198;SDS011;30941;46.422;18.772;2023-09-08T08:36:19;11.05;;;6.00;;
45198;SDS011;30941;46.422;18.772;2023-09-08T08:38:44;9.60;;;6.18;;
45198;SDS011;30941;46.422;18.772;2023-09-08T08:41:10;10.60;;;5.25;;
45198;SDS011;30941;46.422;18.772;2023-09-08T08:43:35;9.38;;;5.47;;
45198;SDS011;30941;46.422;18.772;2023-09-08T08:46:02;9.32;;;6.10;;
45198;SDS011;30941;46.422;18.772;2023-09-08T08:48:29;7.93;;;5.38;;
45198;SDS011;30941;46.422;18.772;2023-09-08T08:50:55;10.80;;;6.22;;
45198;SDS011;30941;46.422;18.772;2023-09-08T08:53:22;10.40;;;5.97;;
45198;SDS011;30941;46.422;18.772;2023-09-08T08:55:49;11.20;;;5.90;;
45198;SDS011;30941;46.422;18.772;2023-09-08T08:58:15;11.00;;;5.88;;
45198;SDS011;30941;46.422;18.772;2023-09-08T09:00:40;10.05;;;6.05;;
45198;SDS011;30941;46.422;18.772;2023-09-08T09:03:06;9.93;;;5.82;;
45198;SDS011;30941;46.422;18.772;2023-09-08T09:05:32;11.18;;;6.32;;
45198;SDS011;30941;46.422;18.772;2023-09-08T09:07:58;7.28;;;5.32;;
45198;SDS011;30941;46.422;18.772;2023-09-08T09:10:24;7.93;;;5.43;;
45198;SDS011;30941;46.422;18.772;2023-09-08T09:12:49;9.65;;;5.63;;
45198;SDS011;30941;46.422;18.772;2023-09-08T09:15:15;16.17;;;5.55;;
45198;SDS011;30941;46.422;18.772;2023-09-08T09:17:41;7.88;;;5.40;;
45198;SDS011;30941;46.422;18.772;2023-09-08T09:20:13;9.18;;;5.40;;
45198;SDS011;30941;46.422;18.772;2023-09-08T09:22:46;10.85;;;5.35;;
45198;SDS011;30941;46.422;18.772;2023-09-08T09:25:25;8.65;;;5.32;;
45198;SDS011;30941;46.422;18.772;2023-09-08T09:27:56;13.20;;;6.22;;
45198;SDS011;30941;46.422;18.772;2023-09-08T09:30:23;11.95;;;5.82;;
45198;SDS011;30941;46.422;18.772;2023-09-08T09:32:49;11.45;;;5.80;;
45198;SDS011;30941;46.422;18.772;2023-09-08T09:35:43;6.78;;;4.80;;
45198;SDS011;30941;46.422;18.772;2023-09-08T09:38:15;9.77;;;5.30;;
45198;SDS011;30941;46.422;18.772;2023-09-08T09:40:41;8.07;;;4.78;;
45198;SDS011;30941;46.422;18.772;2023-09-08T09:43:07;8.13;;;5.15;;
45198;SDS011;30941;46.422;18.772;2023-09-08T09:45:33;9.65;;;5.00;;
45198;SDS011;30941;46.422;18.772;2023-09-08T09:47:59;11.23;;;4.57;;
45198;SDS011;30941;46.422;18.772;2023-09-08T09:50:28;10.52;;;4.97;;
45198;SDS011;30941;46.422;18.772;2023-09-08T09:52:56;11.27;;;4.90;;
45198;SDS011;30941;46.422;18.772;2023-09-08T09:55:23;10.45;;;5.13;;
45198;SDS011;30941;46.422;18.772;2023-09-08T09:57:49;5.57;;;4.50;;
45198;SDS011;30941;46.422;18.772;2023-09-08T10:00:17;7.43;;;4.75;;
45198;SDS011;30941;46.422;18.772;2023-09-08T10:02:44;7.32;;;4.55;;
45198;SDS011;30941;46.422;18.772;2023-09-08T10:05:10;9.40;;;4.80;;
45198;SDS011;30941;46.422;18.772;2023-09-08T10:07:37;6.28;;;4.65;;
45198;SDS011;30941;46.422;18.772;2023-09-08T10:10:03;6.95;;;4.22;;
45198;SDS011;30941;46.422;18.772;2023-09-08T10:12:30;7.57;;;5.20;;
45198;SDS011;30941;46.422;18.772;2023-09-08T10:14:57;8.23;;;4.40;;
45198;SDS011;30941;46.422;18.772;2023-09-08T10:17:24;5.63;;;4.80;;
45198;SDS011;30941;46.422;18.772;2023-09-08T10:19:53;6.68;;;4.43;;
45198;SDS011;30941;46.422;18.772;2023-09-08T10:22:21;5.72;;;4.30;;
45198;SDS011;30941;46.422;18.772;2023-09-08T10:24:51;7.03;;;4.47;;
45198;SDS011;30941;46.422;18.772;2023-09-08T10:27:19;8.57;;;4.40;;
45198;SDS011;30941;46.422;18.772;2023-09-08T10:29:47;6.80;;;4.18;;
45198;SDS011;30941;46.422;18.772;2023-09-08T10:32:13;9.07;;;4.00;;
45198;SDS011;30941;46.422;18.772;2023-09-08T10:34:38;6.25;;;4.10;;
45198;SDS011;30941;46.422;18.772;2023-09-08T10:37:21;6.40;;;4.28;;
45198;SDS011;30941;46.422;18.772;2023-09-08T10:39:47;4.78;;;4.22;;
45198;SDS011;30941;46.422;18.772;2023-09-08T10:44:41;6.32;;;3.90;;
45198;SDS011;30941;46.422;18.772;2023-09-08T10:47:06;4.82;;;4.28;;
45198;SDS011;30941;46.422;18.772;2023-09-08T10:49:36;4.82;;;4.13;;
45198;SDS011;30941;46.422;18.772;2023-09-08T10:52:08;7.30;;;3.65;;
45198;SDS011;30941;46.422;18.772;2023-09-08T10:54:43;6.65;;;3.83;;
45198;SDS011;30941;46.422;18.772;2023-09-08T10:57:13;4.80;;;4.10;;
45198;SDS011;30941;46.422;18.772;2023-09-08T10:59:40;5.30;;;3.65;;
45198;SDS011;30941;46.422;18.772;2023-09-08T11:02:31;5.60;;;3.67;;
45198;SDS011;30941;46.422;18.772;2023-09-08T11:05:01;7.70;;;4.03;;
45198;SDS011;30941;46.422;18.772;2023-09-08T11:07:29;6.63;;;3.40;;
45198;SDS011;30941;46.422;18.772;2023-09-08T11:09:55;7.38;;;3.92;;
45198;SDS011;30941;46.422;18.772;2023-09-08T11:12:21;5.07;;;3.97;;
45198;SDS011;30941;46.422;18.772;2023-09-08T11:14:49;7.65;;;3.95;;
45198;SDS011;30941;46.422;18.772;2023-09-08T11:17:14;4.57;;;3.60;;
45198;SDS011;30941;46.422;18.772;2023-09-08T11:19:44;5.68;;;3.88;;
45198;SDS011;30941;46.422;18.772;2023-09-08T11:22:11;5.20;;;3.28;;
45198;SDS011;30941;46.422;18.772;2023-09-08T11:24:36;5.65;;;3.60;;
45198;SDS011;30941;46.422;18.772;2023-09-08T11:27:01;6.78;;;3.55;;
45198;SDS011;30941;46.422;18.772;2023-09-08T11:29:27;6.88;;;3.95;;
45198;SDS011;30941;46.422;18.772;2023-09-08T11:31:53;5.43;;;3.38;;
45198;SDS011;30941;46.422;18.772;2023-09-08T11:34:20;8.77;;;3.75;;
45198;SDS011;30941;46.422;18.772;2023-09-08T11:36:46;6.72;;;3.92;;
45198;SDS011;30941;46.422;18.772;2023-09-08T11:39:11;9.50;;;3.60;;
45198;SDS011;30941;46.422;18.772;2023-09-08T11:41:36;7.60;;;3.75;;
45198;SDS011;30941;46.422;18.772;2023-09-08T11:44:02;7.65;;;4.00;;
45198;SDS011;30941;46.422;18.772;2023-09-08T11:46:27;6.05;;;4.13;;
45198;SDS011;30941;46.422;18.772;2023-09-08T11:48:53;7.47;;;4.03;;
45198;SDS011;30941;46.422;18.772;2023-09-08T11:51:25;5.07;;;4.00;;
45198;SDS011;30941;46.422;18.772;2023-09-08T11:53:51;5.07;;;3.75;;
45198;SDS011;30941;46.422;18.772;2023-09-08T11:56:17;4.45;;;3.53;;
45198;SDS011;30941;46.422;18.772;2023-09-08T11:58:42;4.30;;;3.85;;
45198;SDS011;30941;46.422;18.772;2023-09-08T12:01:08;4.28;;;3.45;;
45198;SDS011;30941;46.422;18.772;2023-09-08T12:03:34;4.68;;;3.95;;
45198;SDS011;30941;46.422;18.772;2023-09-08T12:06:00;5.03;;;3.65;;
45198;SDS011;30941;46.422;18.772;2023-09-08T12:08:27;5.55;;;3.78;;
45198;SDS011;30941;46.422;18.772;2023-09-08T12:10:53;6.07;;;3.90;;
45198;SDS011;30941;46.422;18.772;2023-09-08T12:13:22;5.65;;;3.92;;
45198;SDS011;30941;46.422;18.772;2023-09-08T12:15:48;5.32;;;3.60;;
45198;SDS011;30941;46.422;18.772;2023-09-08T12:18:14;4.55;;;3.70;;
45198;SDS011;30941;46.422;18.772;2023-09-08T12:20:42;6.07;;;3.50;;
45198;SDS011;30941;46.422;18.772;2023-09-08T12:23:18;11.43;;;3.67;;
45198;SDS011;30941;46.422;18.772;2023-09-08T12:25:45;4.32;;;3.40;;
45198;SDS011;30941;46.422;18.772;2023-09-08T12:28:11;4.50;;;3.78;;
45198;SDS011;30941;46.422;18.772;2023-09-08T12:30:37;5.70;;;3.70;;
45198;SDS011;30941;46.422;18.772;2023-09-08T12:33:03;4.35;;;3.10;;
45198;SDS011;30941;46.422;18.772;2023-09-08T12:35:29;4.93;;;3.47;;
45198;SDS011;30941;46.422;18.772;2023-09-08T12:37:58;6.10;;;3.55;;
45198;SDS011;30941;46.422;18.772;2023-09-08T12:40:28;8.63;;;3.70;;
45198;SDS011;30941;46.422;18.772;2023-09-08T12:42:54;7.47;;;4.20;;
45198;SDS011;30941;46.422;18.772;2023-09-08T12:45:20;5.50;;;3.78;;
45198;SDS011;30941;46.422;18.772;2023-09-08T12:47:47;5.47;;;3.72;;
45198;SDS011;30941;46.422;18.772;2023-09-08T12:50:12;8.30;;;3.50;;
45198;SDS011;30941;46.422;18.772;2023-09-08T12:52:38;4.95;;;3.70;;
45198;SDS011;30941;46.422;18.772;2023-09-08T12:55:04;6.38;;;3.80;;
45198;SDS011;30941;46.422;18.772;2023-09-08T12:57:29;8.05;;;3.55;;
45198;SDS011;30941;46.422;18.772;2023-09-08T12:59:56;12.93;;;3.63;;
45198;SDS011;30941;46.422;18.772;2023-09-08T13:02:21;4.63;;;3.60;;
45198;SDS011;30941;46.422;18.772;2023-09-08T13:04:47;5.57;;;3.90;;
45198;SDS011;30941;46.422;18.772;2023-09-08T13:07:17;7.57;;;3.90;;
45198;SDS011;30941;46.422;18.772;2023-09-08T13:09:43;6.70;;;3.50;;
45198;SDS011;30941;46.422;18.772;2023-09-08T13:12:08;6.97;;;3.67;;
45198;SDS011;30941;46.422;18.772;2023-09-08T13:14:35;8.20;;;4.20;;
45198;SDS011;30941;46.422;18.772;2023-09-08T13:17:01;7.82;;;3.92;;
45198;SDS011;30941;46.422;18.772;2023-09-08T13:19:27;6.05;;;3.90;;
45198;SDS011;30941;46.422;18.772;2023-09-08T13:21:52;6.47;;;3.67;;
45198;SDS011;30941;46.422;18.772;2023-09-08T13:24:18;8.80;;;4.20;;
45198;SDS011;30941;46.422;18.772;2023-09-08T13:26:46;5.70;;;3.88;;
45198;SDS011;30941;46.422;18.772;2023-09-08T13:29:11;9.13;;;4.00;;
45198;SDS011;30941;46.422;18.772;2023-09-08T13:31:37;6.22;;;3.80;;
45198;SDS011;30941;46.422;18.772;2023-09-08T13:34:02;5.68;;;3.88;;
45198;SDS011;30941;46.422;18.772;2023-09-08T13:36:28;4.57;;;3.60;;
45198;SDS011;30941;46.422;18.772;2023-09-08T13:38:53;5.03;;;3.42;;
45198;SDS011;30941;46.422;18.772;2023-09-08T13:41:19;7.20;;;3.67;;
45198;SDS011;30941;46.422;18.772;2023-09-08T13:43:45;8.80;;;3.72;;
45198;SDS011;30941;46.422;18.772;2023-09-08T13:46:10;7.28;;;4.10;;
45198;SDS011;30941;46.422;18.772;2023-09-08T13:48:36;6.03;;;3.67;;
45198;SDS011;30941;46.422;18.772;2023-09-08T13:51:02;12.52;;;3.83;;
45198;SDS011;30941;46.422;18.772;2023-09-08T13:53:28;7.03;;;3.67;;
45198;SDS011;30941;46.422;18.772;2023-09-08T13:55:56;9.88;;;3.95;;
45198;SDS011;30941;46.422;18.772;2023-09-08T13:58:22;7.57;;;4.20;;
45198;SDS011;30941;46.422;18.772;2023-09-08T14:00:48;8.77;;;3.78;;
45198;SDS011;30941;46.422;18.772;2023-09-08T14:03:14;7.78;;;4.13;;
45198;SDS011;30941;46.422;18.772;2023-09-08T14:05:41;8.30;;;3.95;;
45198;SDS011;30941;46.422;18.772;2023-09-08T14:08:07;16.20;;;5.30;;
45198;SDS011;30941;46.422;18.772;2023-09-08T14:10:32;8.35;;;3.63;;
45198;SDS011;30941;46.422;18.772;2023-09-08T14:12:58;7.45;;;3.80;;
45198;SDS011;30941;46.422;18.772;2023-09-08T14:15:24;9.25;;;3.95;;
45198;SDS011;30941;46.422;18.772;2023-09-08T14:17:49;10.35;;;3.90;;
45198;SDS011;30941;46.422;18.772;2023-09-08T14:20:15;7.40;;;3.80;;
45198;SDS011;30941;46.422;18.772;2023-09-08T14:22:41;9.93;;;3.60;;
45198;SDS011;30941;46.422;18.772;2023-09-08T14:25:07;6.35;;;3.63;;
45198;SDS011;30941;46.422;18.772;2023-09-08T14:27:35;6.65;;;3.83;;
45198;SDS011;30941;46.422;18.772;2023-09-08T14:30:02;4.82;;;3.15;;
45198;SDS011;30941;46.422;18.772;2023-09-08T14:32:29;6.00;;;3.90;;
45198;SDS011;30941;46.422;18.772;2023-09-08T14:34:55;5.20;;;3.53;;
45198;SDS011;30941;46.422;18.772;2023-09-08T14:37:21;6.25;;;3.70;;